Time;durP1;ratioP1;P1;durP2;ratioP2;P2;SDS_P1;SDS_P2;PMS_P1;PMS_P2;Temp;Humidity;BMP_temperature;BMP_pressure;BME280_temperature;BME280_humidity;BME280_pressure;Samples;Min_cycle;Max_cycle;Signal;HPM_P1;HPM_P2
2023/10/30 00:01:15;;;;;;;52.72;50.05;;;;;;;;;;5055423;28;20060;-64
2023/10/30 00:03:40;;;;;;;50.78;48.20;;;;;;;;;;5067225;28;20044;-69
2023/10/30 00:06:06;;;;;;;60.80;57.72;;;;;;;;;;5066204;28;20040;-64
2023/10/30 00:08:31;;;;;;;52.83;50.15;;;;;;;;;;5068107;28;20465;-64
2023/10/30 00:10:56;;;;;;;49.53;46.97;;;;;;;;;;5068376;28;20429;-68
2023/10/30 00:13:22;;;;;;;56.63;53.72;;;;;;;;;;5067325;28;20063;-68
2023/10/30 00:15:47;;;;;;;51.08;48.50;;;;;;;;;;5066012;28;20028;-64
2023/10/30 00:18:12;;;;;;;49.85;47.15;;;;;;;;;;5065981;28;20044;-64
2023/10/30 00:20:38;;;;;;;63.33;60.08;;;;;;;;;;5067802;28;20119;-64
2023/10/30 00:23:03;;;;;;;68.43;65.00;;;;;;;;;;5064314;28;20123;-64
2023/10/30 00:25:28;;;;;;;101.90;96.90;;;;;;;;;;5065732;28;20028;-64
2023/10/30 00:27:59;;;;;;;75.95;72.18;;;;;;;;;;5068522;28;20024;-64
2023/10/30 00:30:24;;;;;;;;;;;;;;;;;;5068889;28;20124;-64
2023/10/30 00:32:50;;;;;;;48.50;46.05;;;;;;;;;;5066630;28;20429;-64
2023/10/30 00:35:15;;;;;;;47.60;45.20;;;;;;;;;;5065287;28;20037;-64
2023/10/30 00:37:41;;;;;;;61.90;58.83;;;;;;;;;;5063554;28;20116;-64
2023/10/30 00:40:06;;;;;;;52.05;49.42;;;;;;;;;;5062696;28;20040;-64
2023/10/30 00:42:32;;;;;;;48.88;46.40;;;;;;;;;;5067381;28;20036;-68
2023/10/30 00:44:57;;;;;;;47.65;45.22;;;;;;;;;;5065173;28;20028;-68
2023/10/30 00:47:22;;;;;;;69.28;65.82;;;;;;;;;;5067846;28;20027;-63
2023/10/30 00:49:48;;;;;;;50.80;48.22;;;;;;;;;;5066004;28;20037;-67
2023/10/30 00:52:13;;;;;;;62.88;59.38;;;;;;;;;;5065481;28;20067;-68
2023/10/30 00:54:39;;;;;;;39.03;37.03;;;;;;;;;;5068919;28;20067;-68
2023/10/30 00:57:04;;;;;;;61.05;57.97;;;;;;;;;;5064828;28;20029;-64
2023/10/30 00:59:30;;;;;;;47.97;45.55;;;;;;;;;;5066512;28;20056;-68
2023/10/30 01:01:55;;;;;;;62.95;59.47;;;;;;;;;;5064339;28;20036;-68
2023/10/30 01:04:20;;;;;;;44.03;41.80;;;;;;;;;;5070295;28;20428;-64
2023/10/30 01:06:46;;;;;;;50.38;47.83;;;;;;;;;;5065772;28;20043;-68
2023/10/30 01:09:11;;;;;;;54.22;51.35;;;;;;;;;;5064585;28;24159;-64
2023/10/30 01:11:37;;;;;;;49.33;46.83;;;;;;;;;;5071681;28;20040;-68
2023/10/30 01:14:03;;;;;;;50.10;47.53;;;;;;;;;;5069875;28;20025;-64
2023/10/30 01:16:28;;;;;;;55.75;52.95;;;;;;;;;;5067869;28;20032;-68
2023/10/30 01:18:53;;;;;;;43.97;41.55;;;;;;;;;;5065065;28;20057;-64
2023/10/30 01:21:20;;;;;;;49.60;47.08;;;;;;;;;;5065528;28;20033;-64
2023/10/30 01:23:45;;;;;;;54.53;51.63;;;;;;;;;;5065107;28;20803;-68
2023/10/30 01:26:11;;;;;;;48.35;45.90;;;;;;;;;;5064179;28;20044;-63
2023/10/30 01:28:36;;;;;;;47.47;44.95;;;;;;;;;;5065758;28;20047;-67
2023/10/30 01:31:04;;;;;;;53.55;50.88;;;;;;;;;;5066323;28;20540;-67
2023/10/30 01:33:30;;;;;;;51.53;48.92;;;;;;;;;;5066728;28;20040;-64
2023/10/30 01:35:55;;;;;;;64.40;61.20;;;;;;;;;;5029191;28;1050214;-63
2023/10/30 01:38:21;;;;;;;69.78;66.32;;;;;;;;;;5067579;28;20024;-67
2023/10/30 01:40:48;;;;;;;65.55;62.20;;;;;;;;;;5070463;28;20059;-67
2023/10/30 01:43:13;;;;;;;64.50;61.25;;;;;;;;;;5066952;28;20032;-66
2023/10/30 01:45:39;;;;;;;61.92;58.83;;;;;;;;;;5066925;28;20043;-64
2023/10/30 01:48:04;;;;;;;48.83;46.35;;;;;;;;;;5065196;28;20064;-64
2023/10/30 01:50:31;;;;;;;46.20;43.85;;;;;;;;;;5063975;28;20066;-63
2023/10/30 01:52:56;;;;;;;49.47;47.00;;;;;;;;;;5063978;28;20062;-64
2023/10/30 01:55:22;;;;;;;46.63;43.92;;;;;;;;;;5063194;28;20029;-64
2023/10/30 01:57:49;;;;;;;47.30;44.72;;;;;;;;;;5065833;28;20040;-63
2023/10/30 02:00:15;;;;;;;50.97;48.15;;;;;;;;;;5064852;28;20036;-68
2023/10/30 02:02:41;;;;;;;50.35;47.67;;;;;;;;;;5063343;28;20370;-67
2023/10/30 02:05:08;;;;;;;50.97;48.40;;;;;;;;;;5065120;28;20032;-63
2023/10/30 02:07:35;;;;;;;52.35;49.70;;;;;;;;;;5068567;28;20068;-64
2023/10/30 02:10:01;;;;;;;50.97;48.38;;;;;;;;;;5064951;28;20611;-68
2023/10/30 02:12:26;;;;;;;52.38;49.72;;;;;;;;;;5065770;28;20051;-68
2023/10/30 02:14:52;;;;;;;50.40;47.85;;;;;;;;;;5064976;28;20031;-64
2023/10/30 02:17:17;;;;;;;52.90;50.25;;;;;;;;;;5062578;28;20273;-67
2023/10/30 02:19:42;;;;;;;47.38;44.97;;;;;;;;;;5067398;28;20083;-68
2023/10/30 02:22:08;;;;;;;48.85;46.40;;;;;;;;;;5065708;28;20046;-67
2023/10/30 02:24:33;;;;;;;52.03;49.15;;;;;;;;;;5067674;28;20040;-64
2023/10/30 02:26:58;;;;;;;49.00;46.47;;;;;;;;;;5066519;28;20040;-64
2023/10/30 02:29:24;;;;;;;49.22;46.75;;;;;;;;;;5068454;28;20028;-64
2023/10/30 02:31:50;;;;;;;54.63;51.33;;;;;;;;;;5067717;28;20231;-64
2023/10/30 02:34:16;;;;;;;49.78;47.03;;;;;;;;;;5066370;28;20039;-68
2023/10/30 02:36:41;;;;;;;48.95;46.42;;;;;;;;;;5066847;28;20025;-68
2023/10/30 02:39:09;;;;;;;51.15;48.58;;;;;;;;;;5066331;28;20074;-68
2023/10/30 02:41:35;;;;;;;47.28;44.88;;;;;;;;;;5064790;28;20377;-68
2023/10/30 02:44:01;;;;;;;53.90;51.20;;;;;;;;;;5062798;28;20033;-68
2023/10/30 02:46:26;;;;;;;48.85;46.38;;;;;;;;;;5065674;28;20056;-67
2023/10/30 02:48:52;;;;;;;48.83;46.35;;;;;;;;;;5065073;28;20055;-67
2023/10/30 02:51:18;;;;;;;48.45;46.00;;;;;;;;;;5063253;28;20033;-68
2023/10/30 02:53:43;;;;;;;52.45;49.83;;;;;;;;;;5063364;28;20036;-64
2023/10/30 02:56:09;;;;;;;45.38;43.08;;;;;;;;;;5067801;28;20450;-64
2023/10/30 02:58:34;;;;;;;45.75;43.35;;;;;;;;;;5066041;28;20458;-64
2023/10/30 03:01:00;;;;;;;50.38;47.83;;;;;;;;;;5064919;28;20040;-64
2023/10/30 03:03:26;;;;;;;45.40;43.10;;;;;;;;;;5069028;28;20044;-68
2023/10/30 03:05:52;;;;;;;46.33;43.97;;;;;;;;;;5068849;28;20028;-68
2023/10/30 03:08:17;;;;;;;49.83;47.30;;;;;;;;;;5062362;28;20063;-68
2023/10/30 03:10:43;;;;;;;45.72;43.28;;;;;;;;;;5066173;28;20353;-64
2023/10/30 03:13:09;;;;;;;46.08;43.75;;;;;;;;;;5062915;28;20112;-64
2023/10/30 03:15:34;;;;;;;43.50;41.30;;;;;;;;;;5064732;28;20040;-68
2023/10/30 03:18:01;;;;;;;43.05;40.88;;;;;;;;;;5063844;28;20037;-68
2023/10/30 03:20:26;;;;;;;45.80;43.42;;;;;;;;;;5062215;28;20127;-68
2023/10/30 03:22:52;;;;;;;44.25;42.00;;;;;;;;;;5064097;28;20116;-68
2023/10/30 03:25:17;;;;;;;42.95;40.78;;;;;;;;;;5066646;28;20127;-64
2023/10/30 03:27:42;;;;;;;39.83;37.75;;;;;;;;;;5068342;28;20621;-64
2023/10/30 03:30:08;;;;;;;41.05;38.90;;;;;;;;;;5063198;28;20036;-64
2023/10/30 03:32:34;;;;;;;38.90;36.92;;;;;;;;;;5063598;28;20029;-64
2023/10/30 03:34:59;;;;;;;40.22;38.17;;;;;;;;;;5063096;28;20047;-68
2023/10/30 03:37:25;;;;;;;39.47;37.45;;;;;;;;;;5062328;28;20028;-64
2023/10/30 03:39:50;;;;;;;42.63;40.40;;;;;;;;;;5068269;28;20032;-68
2023/10/30 03:42:16;;;;;;;36.90;35.00;;;;;;;;;;5064420;28;20461;-67
2023/10/30 03:44:41;;;;;;;36.55;34.65;;;;;;;;;;5064083;28;20028;-64
2023/10/30 03:47:06;;;;;;;36.70;34.80;;;;;;;;;;5065831;28;20033;-68
2023/10/30 03:49:32;;;;;;;36.30;34.45;;;;;;;;;;5064066;28;20050;-64
2023/10/30 03:51:57;;;;;;;34.30;32.53;;;;;;;;;;5067375;28;20612;-64
2023/10/30 03:54:22;;;;;;;35.40;33.58;;;;;;;;;;5063884;28;20029;-68
2023/10/30 03:56:48;;;;;;;36.28;34.42;;;;;;;;;;5060989;28;20032;-68
2023/10/30 03:59:16;;;;;;;34.85;33.08;;;;;;;;;;5062673;28;20044;-65
2023/10/30 04:01:42;;;;;;;33.90;32.13;;;;;;;;;;5066568;28;20041;-67
2023/10/30 04:04:07;;;;;;;34.47;32.72;;;;;;;;;;5067948;28;20119;-68
2023/10/30 04:06:35;;;;;;;34.72;32.92;;;;;;;;;;5063718;28;20028;-67
2023/10/30 04:09:05;;;;;;;34.92;33.10;;;;;;;;;;5064977;28;20044;-68
2023/10/30 04:11:30;;;;;;;35.47;33.65;;;;;;;;;;5063830;28;20789;-63
2023/10/30 04:13:56;;;;;;;35.97;34.10;;;;;;;;;;5065023;28;20110;-68
2023/10/30 04:16:21;;;;;;;33.95;32.15;;;;;;;;;;5060575;28;20097;-64
2023/10/30 04:18:47;;;;;;;35.88;34.03;;;;;;;;;;5064243;28;20087;-63
2023/10/30 04:21:12;;;;;;;33.60;31.88;;;;;;;;;;5063464;28;20037;-63
2023/10/30 04:23:40;;;;;;;35.03;33.22;;;;;;;;;;5064116;28;20032;-63
2023/10/30 04:26:05;;;;;;;36.55;34.63;;;;;;;;;;5065141;28;20097;-68
2023/10/30 04:28:31;;;;;;;34.80;33.00;;;;;;;;;;5067569;28;20040;-68
2023/10/30 04:30:56;;;;;;;32.58;30.88;;;;;;;;;;5072779;28;20056;-68
2023/10/30 04:33:21;;;;;;;34.03;32.25;;;;;;;;;;5068493;28;20651;-63
2023/10/30 04:35:47;;;;;;;32.40;30.70;;;;;;;;;;5068611;28;20033;-63
2023/10/30 04:38:12;;;;;;;33.78;31.77;;;;;;;;;;5067438;28;20445;-68
2023/10/30 04:40:38;;;;;;;32.30;30.60;;;;;;;;;;5066432;28;20063;-68
2023/10/30 04:43:03;;;;;;;34.53;32.53;;;;;;;;;;5067859;28;20059;-68
2023/10/30 04:45:28;;;;;;;33.65;31.92;;;;;;;;;;5067597;28;20115;-63
2023/10/30 04:47:54;;;;;;;34.65;32.85;;;;;;;;;;5065534;28;20048;-67
2023/10/30 04:50:19;;;;;;;33.90;32.05;;;;;;;;;;5065166;28;20025;-66
2023/10/30 04:52:44;;;;;;;32.67;30.98;;;;;;;;;;5066099;28;20036;-67
2023/10/30 04:55:10;;;;;;;33.92;32.13;;;;;;;;;;5068150;28;20048;-63
2023/10/30 04:57:36;;;;;;;31.20;29.60;;;;;;;;;;5071014;28;20040;-63
2023/10/30 05:00:04;;;;;;;35.25;33.45;;;;;;;;;;5068939;28;20401;-66
2023/10/30 05:02:30;;;;;;;34.88;33.08;;;;;;;;;;5066173;28;20174;-63
2023/10/30 05:04:55;;;;;;;33.67;31.95;;;;;;;;;;5071013;28;20044;-63
2023/10/30 05:07:21;;;;;;;33.28;31.23;;;;;;;;;;5065071;28;20053;-63
2023/10/30 05:09:46;;;;;;;36.00;33.88;;;;;;;;;;5069157;28;20078;-63
2023/10/30 05:12:12;;;;;;;35.05;33.22;;;;;;;;;;5066880;28;20032;-66
2023/10/30 05:14:37;;;;;;;34.22;32.47;;;;;;;;;;5068105;28;20116;-66
2023/10/30 05:17:03;;;;;;;34.03;32.28;;;;;;;;;;5066532;28;20461;-67
2023/10/30 05:19:29;;;;;;;34.13;32.38;;;;;;;;;;5066853;28;20024;-63
2023/10/30 05:21:54;;;;;;;32.30;30.65;;;;;;;;;;5067001;28;20094;-63
2023/10/30 05:24:23;;;;;;;36.58;34.67;;;;;;;;;;5065289;28;20454;-66
2023/10/30 05:26:48;;;;;;;33.72;31.95;;;;;;;;;;5066227;28;20035;-63
2023/10/30 05:29:14;;;;;;;33.35;31.65;;;;;;;;;;5067797;28;20033;-65
2023/10/30 05:31:39;;;;;;;33.63;31.90;;;;;;;;;;5066553;28;20049;-66
2023/10/30 05:34:05;;;;;;;33.05;31.35;;;;;;;;;;5067051;28;20086;-63
2023/10/30 05:36:30;;;;;;;31.30;29.70;;;;;;;;;;5066920;28;20059;-63
2023/10/30 05:38:55;;;;;;;32.63;30.95;;;;;;;;;;5063997;28;20033;-63
2023/10/30 05:41:21;;;;;;;31.27;29.67;;;;;;;;;;5062936;28;20094;-64
2023/10/30 05:43:46;;;;;;;31.80;30.15;;;;;;;;;;5064859;28;20040;-66
2023/10/30 05:46:11;;;;;;;30.67;29.08;;;;;;;;;;5069396;28;20443;-65
2023/10/30 05:48:37;;;;;;;31.50;29.88;;;;;;;;;;5063265;28;20028;-67
2023/10/30 05:51:03;;;;;;;31.42;29.80;;;;;;;;;;5067122;28;20036;-66
2023/10/30 05:53:28;;;;;;;33.00;31.30;;;;;;;;;;5060970;28;20040;-69
2023/10/30 05:55:53;;;;;;;34.78;32.88;;;;;;;;;;5069254;28;20024;-63
2023/10/30 05:58:19;;;;;;;35.10;33.30;;;;;;;;;;5067020;28;20235;-63
2023/10/30 06:00:44;;;;;;;35.45;33.65;;;;;;;;;;5067117;28;20040;-66
2023/10/30 06:03:09;;;;;;;36.95;35.05;;;;;;;;;;5066518;28;20047;-63
2023/10/30 06:05:35;;;;;;;35.33;33.45;;;;;;;;;;5066406;28;20044;-62
2023/10/30 06:08:01;;;;;;;35.30;33.47;;;;;;;;;;5065251;28;20129;-65
2023/10/30 06:10:26;;;;;;;35.90;33.95;;;;;;;;;;5063472;28;20021;-63
2023/10/30 06:12:52;;;;;;;34.35;32.58;;;;;;;;;;5066742;28;20462;-62
2023/10/30 06:15:17;;;;;;;34.80;33.00;;;;;;;;;;5066557;28;20682;-66
2023/10/30 06:17:43;;;;;;;33.83;32.08;;;;;;;;;;5066350;28;20024;-62
2023/10/30 06:20:09;;;;;;;37.00;35.10;;;;;;;;;;5067891;28;20040;-66
2023/10/30 06:22:34;;;;;;;35.42;33.60;;;;;;;;;;5063498;28;20506;-66
2023/10/30 06:25:00;;;;;;;36.55;34.35;;;;;;;;;;5065310;28;20361;-65
2023/10/30 06:27:26;;;;;;;34.17;32.25;;;;;;;;;;5067681;28;20508;-67
2023/10/30 06:29:52;;;;;;;35.63;33.80;;;;;;;;;;5066003;28;20036;-66
2023/10/30 06:32:17;;;;;;;37.00;35.13;;;;;;;;;;5067804;28;20157;-65
2023/10/30 06:34:43;;;;;;;33.25;31.52;;;;;;;;;;5067775;28;20042;-64
2023/10/30 06:37:09;;;;;;;34.47;32.72;;;;;;;;;;5068245;28;20042;-64
2023/10/30 06:39:35;;;;;;;34.28;32.53;;;;;;;;;;5064775;28;20052;-65
2023/10/30 06:42:02;;;;;;;34.90;33.10;;;;;;;;;;5062738;28;20044;-63
2023/10/30 06:44:28;;;;;;;36.55;34.67;;;;;;;;;;5064026;28;20033;-67
2023/10/30 06:46:54;;;;;;;37.38;35.47;;;;;;;;;;5062330;28;20036;-66
2023/10/30 06:49:20;;;;;;;37.13;35.22;;;;;;;;;;5065721;28;20393;-67
2023/10/30 06:51:45;;;;;;;33.90;32.15;;;;;;;;;;5063963;28;20035;-67
2023/10/30 06:54:12;;;;;;;37.10;35.20;;;;;;;;;;5062654;28;20098;-64
2023/10/30 06:56:37;;;;;;;36.38;34.42;;;;;;;;;;5060533;28;20203;-64
2023/10/30 06:59:03;;;;;;;39.72;37.63;;;;;;;;;;5063027;28;20226;-64
2023/10/30 07:01:33;;;;;;;36.45;34.58;;;;;;;;;;5064476;28;20460;-64
2023/10/30 07:03:58;;;;;;;38.35;36.35;;;;;;;;;;5061749;28;20103;-66
2023/10/30 07:06:24;;;;;;;38.75;36.75;;;;;;;;;;5064227;28;20044;-67
2023/10/30 07:08:49;;;;;;;36.72;34.85;;;;;;;;;;5058540;28;20119;-65
2023/10/30 07:11:14;;;;;;;39.40;37.30;;;;;;;;;;5066427;28;20021;-67
2023/10/30 07:13:40;;;;;;;37.13;35.22;;;;;;;;;;5065071;28;20036;-64
2023/10/30 07:16:07;;;;;;;38.92;35.95;;;;;;;;;;5068402;28;20473;-63
2023/10/30 07:18:33;;;;;;;37.45;35.53;;;;;;;;;;5063230;28;20112;-63
2023/10/30 07:20:59;;;;;;;36.65;34.78;;;;;;;;;;5064340;28;20050;-63
2023/10/30 07:23:24;;;;;;;36.70;34.83;;;;;;;;;;5061984;28;20036;-64
2023/10/30 07:25:50;;;;;;;38.25;36.30;;;;;;;;;;5064457;28;20065;-65
2023/10/30 07:28:16;;;;;;;38.22;36.28;;;;;;;;;;5061268;28;20147;-65
2023/10/30 07:30:42;;;;;;;38.78;36.80;;;;;;;;;;5058652;28;20107;-65
2023/10/30 07:33:07;;;;;;;40.83;38.75;;;;;;;;;;5062243;28;20553;-65
2023/10/30 07:35:32;;;;;;;39.83;37.78;;;;;;;;;;5061844;28;20388;-65
2023/10/30 07:37:58;;;;;;;39.75;37.70;;;;;;;;;;5062605;28;21225;-64
2023/10/30 07:40:26;;;;;;;40.25;38.20;;;;;;;;;;5065978;28;20032;-65
2023/10/30 07:42:53;;;;;;;39.88;37.85;;;;;;;;;;5065061;28;20036;-64
2023/10/30 07:45:19;;;;;;;40.22;38.17;;;;;;;;;;5063891;28;20028;-65
2023/10/30 07:47:44;;;;;;;41.08;39.00;;;;;;;;;;5063620;28;20048;-65
2023/10/30 07:50:10;;;;;;;42.08;39.95;;;;;;;;;;5062553;28;20033;-63
2023/10/30 07:52:35;;;;;;;40.78;38.70;;;;;;;;;;5061711;28;20038;-65
2023/10/30 07:55:02;;;;;;;42.35;40.10;;;;;;;;;;5063163;28;20040;-65
2023/10/30 07:57:27;;;;;;;44.05;41.80;;;;;;;;;;5066632;28;20116;-63
2023/10/30 07:59:52;;;;;;;48.13;45.67;;;;;;;;;;5063712;28;20060;-65
2023/10/30 08:02:18;;;;;;;43.40;41.20;;;;;;;;;;5066447;28;20067;-65
2023/10/30 08:04:43;;;;;;;47.67;45.25;;;;;;;;;;5067068;28;20474;-65
2023/10/30 08:07:09;;;;;;;45.05;42.75;;;;;;;;;;5071247;28;20038;-64
2023/10/30 08:09:35;;;;;;;44.08;41.80;;;;;;;;;;5067425;28;20533;-64
2023/10/30 08:12:02;;;;;;;42.78;40.63;;;;;;;;;;5064436;28;21277;-63
2023/10/30 08:14:28;;;;;;;44.63;42.33;;;;;;;;;;5069806;28;20032;-64
2023/10/30 08:16:54;;;;;;;42.72;40.55;;;;;;;;;;5066496;28;20032;-64
2023/10/30 08:19:19;;;;;;;44.30;41.80;;;;;;;;;;5064370;28;20040;-65
2023/10/30 08:21:44;;;;;;;46.33;43.97;;;;;;;;;;5064605;28;20376;-64
2023/10/30 08:24:10;;;;;;;47.45;45.03;;;;;;;;;;5064639;28;20074;-63
2023/10/30 08:26:36;;;;;;;45.50;43.20;;;;;;;;;;5067090;28;20036;-63
2023/10/30 08:29:01;;;;;;;48.13;45.70;;;;;;;;;;5067107;28;20033;-63
2023/10/30 08:31:26;;;;;;;48.25;45.80;;;;;;;;;;5063818;28;20044;-63
2023/10/30 08:33:52;;;;;;;46.53;44.17;;;;;;;;;;5069979;28;20538;-63
2023/10/30 08:36:21;;;;;;;49.40;46.90;;;;;;;;;;5063793;28;20057;-65
2023/10/30 08:38:47;;;;;;;49.08;46.60;;;;;;;;;;5068727;28;20063;-64
2023/10/30 08:41:15;;;;;;;48.95;46.47;;;;;;;;;;5064489;28;20051;-63
2023/10/30 08:43:41;;;;;;;47.33;44.92;;;;;;;;;;5064077;28;20046;-64
2023/10/30 08:46:06;;;;;;;49.72;47.22;;;;;;;;;;5066069;28;20041;-63
2023/10/30 08:48:32;;;;;;;49.10;46.63;;;;;;;;;;5067324;28;20033;-63
2023/10/30 08:50:57;;;;;;;50.90;48.33;;;;;;;;;;5067320;28;20078;-64
2023/10/30 08:53:23;;;;;;;50.15;47.60;;;;;;;;;;5062820;28;20068;-64
2023/10/30 08:55:48;;;;;;;48.33;45.72;;;;;;;;;;5066285;28;20029;-63
2023/10/30 08:58:14;;;;;;;50.97;48.08;;;;;;;;;;5068810;28;20036;-63
2023/10/30 09:00:39;;;;;;;51.47;48.88;;;;;;;;;;5065160;28;20694;-64
2023/10/30 09:03:04;;;;;;;51.17;48.58;;;;;;;;;;5067079;28;20112;-65
2023/10/30 09:05:30;;;;;;;51.50;48.90;;;;;;;;;;5066820;28;20055;-63
2023/10/30 09:07:55;;;;;;;55.17;52.35;;;;;;;;;;5066106;28;20029;-63
2023/10/30 09:10:26;;;;;;;52.05;49.42;;;;;;;;;;5064122;28;20041;-63
2023/10/30 09:12:51;;;;;;;51.45;48.85;;;;;;;;;;5065686;28;20090;-65
2023/10/30 09:15:17;;;;;;;53.55;50.85;;;;;;;;;;5064963;28;20401;-65
2023/10/30 09:17:42;;;;;;;55.42;52.65;;;;;;;;;;5067620;28;20036;-65
2023/10/30 09:20:12;;;;;;;53.88;51.15;;;;;;;;;;5067905;28;20032;-64
2023/10/30 09:22:37;;;;;;;55.00;52.22;;;;;;;;;;5066788;28;20023;-64
2023/10/30 09:25:03;;;;;;;56.28;53.42;;;;;;;;;;5062080;28;20035;-65
2023/10/30 09:27:28;;;;;;;59.65;56.67;;;;;;;;;;5065899;28;20492;-64
2023/10/30 09:29:54;;;;;;;60.30;57.22;;;;;;;;;;5064423;28;20024;-63
2023/10/30 09:32:19;;;;;;;59.05;56.08;;;;;;;;;;5065279;28;20071;-64
2023/10/30 09:34:44;;;;;;;63.80;60.60;;;;;;;;;;5062718;28;20028;-70
2023/10/30 09:37:11;;;;;;;59.70;56.72;;;;;;;;;;5068121;28;20048;-64
2023/10/30 09:39:36;;;;;;;66.65;63.33;;;;;;;;;;5063394;28;20098;-65
2023/10/30 09:42:02;;;;;;;69.32;65.88;;;;;;;;;;5065905;28;20047;-65
2023/10/30 09:44:29;;;;;;;59.63;56.63;;;;;;;;;;5061362;28;20107;-65
2023/10/30 09:46:55;;;;;;;58.60;55.67;;;;;;;;;;5058414;28;20045;-64
2023/10/30 09:49:22;;;;;;;60.45;57.45;;;;;;;;;;5063439;28;20032;-64
2023/10/30 09:51:49;;;;;;;55.83;53.03;;;;;;;;;;5063634;28;20143;-66
2023/10/30 09:54:17;;;;;;;59.33;56.38;;;;;;;;;;5063259;28;20093;-66
2023/10/30 09:56:43;;;;;;;64.35;61.15;;;;;;;;;;5062394;28;20035;-64
2023/10/30 09:59:10;;;;;;;68.78;65.35;;;;;;;;;;5065384;28;20029;-65
2023/10/30 10:01:35;;;;;;;70.45;66.90;;;;;;;;;;5067597;28;20037;-64
2023/10/30 10:04:01;;;;;;;66.65;63.30;;;;;;;;;;5065071;28;20036;-65
2023/10/30 10:06:26;;;;;;;63.47;60.30;;;;;;;;;;5065587;28;20063;-66
2023/10/30 10:08:52;;;;;;;71.57;68.03;;;;;;;;;;5066144;28;20055;-66
2023/10/30 10:11:22;;;;;;;63.10;59.92;;;;;;;;;;5065916;28;20044;-64
2023/10/30 10:13:48;;;;;;;66.72;63.40;;;;;;;;;;5066552;28;20058;-64
2023/10/30 10:16:14;;;;;;;68.00;64.60;;;;;;;;;;5063684;28;20034;-63
2023/10/30 10:18:39;;;;;;;70.20;66.68;;;;;;;;;;5065549;28;20044;-65
2023/10/30 10:21:08;;;;;;;71.68;68.13;;;;;;;;;;5064614;28;20037;-65
2023/10/30 10:23:36;;;;;;;65.72;62.42;;;;;;;;;;5065480;28;20033;-64
2023/10/30 10:26:04;;;;;;;68.13;64.72;;;;;;;;;;5066505;28;20155;-66
2023/10/30 10:28:30;;;;;;;65.75;62.45;;;;;;;;;;5066662;28;20123;-65
2023/10/30 10:30:56;;;;;;;65.40;62.10;;;;;;;;;;5065438;28;20036;-65
2023/10/30 10:33:28;;;;;;;67.18;63.80;;;;;;;;;;5064850;28;20097;-63
2023/10/30 10:35:54;;;;;;;59.95;56.97;;;;;;;;;;5067111;28;20059;-62
2023/10/30 10:38:21;;;;;;;59.50;56.50;;;;;;;;;;5062803;28;20024;-63
2023/10/30 10:40:47;;;;;;;54.47;51.75;;;;;;;;;;5063455;28;20107;-66
2023/10/30 10:43:18;;;;;;;51.88;49.25;;;;;;;;;;5066474;28;20160;-65
2023/10/30 10:45:46;;;;;;;55.65;52.42;;;;;;;;;;5065936;28;20039;-66
2023/10/30 10:48:12;;;;;;;57.13;53.92;;;;;;;;;;5065974;28;20445;-63
2023/10/30 10:50:37;;;;;;;58.28;55.08;;;;;;;;;;5063530;28;20671;-62
2023/10/30 10:53:07;;;;;;;58.10;55.08;;;;;;;;;;5060728;28;20062;-63
2023/10/30 10:55:37;;;;;;;54.42;51.70;;;;;;;;;;5064873;28;20027;-66
2023/10/30 10:58:34;;;;;;;56.03;52.95;;;;;;;;;;5064148;28;20477;-66
2023/10/30 11:01:01;;;;;;;52.75;50.05;;;;;;;;;;5064475;28;20097;-66
2023/10/30 11:03:27;;;;;;;50.30;47.70;;;;;;;;;;5063385;28;20050;-66
2023/10/30 11:05:53;;;;;;;51.92;49.33;;;;;;;;;;5063535;28;20029;-63
2023/10/30 11:08:43;;;;;;;54.53;51.80;;;;;;;;;;5063151;28;20029;-62
2023/10/30 11:11:12;;;;;;;52.30;49.35;;;;;;;;;;5066114;28;20079;-62
2023/10/30 11:13:58;;;;;;;53.08;50.28;;;;;;;;;;5065937;28;20043;-62
2023/10/30 11:16:27;;;;;;;49.92;47.42;;;;;;;;;;5064804;28;20032;-66
2023/10/30 11:18:58;;;;;;;51.25;48.03;;;;;;;;;;5064271;28;20119;-65
2023/10/30 11:21:26;;;;;;;50.65;48.08;;;;;;;;;;5064741;28;20050;-65
2023/10/30 11:23:56;;;;;;;51.40;48.78;;;;;;;;;;5060791;28;20503;-65
2023/10/30 11:26:40;;;;;;;51.50;48.83;;;;;;;;;;5050139;28;20531;-64
2023/10/30 11:29:22;;;;;;;47.10;44.70;;;;;;;;;;5066657;28;20028;-63
2023/10/30 11:31:51;;;;;;;56.72;53.85;;;;;;;;;;5062599;28;20585;-64
2023/10/30 11:34:16;;;;;;;62.78;59.60;;;;;;;;;;5066135;28;20036;-63
2023/10/30 11:36:45;;;;;;;59.78;56.80;;;;;;;;;;5066607;28;20028;-65
2023/10/30 11:39:11;;;;;;;58.63;55.45;;;;;;;;;;5068637;28;20098;-65
2023/10/30 11:41:38;;;;;;;54.35;51.45;;;;;;;;;;5066137;28;20039;-65
2023/10/30 11:44:11;;;;;;;53.90;51.08;;;;;;;;;;5065675;28;20054;-63
2023/10/30 11:46:44;;;;;;;55.08;52.30;;;;;;;;;;5067845;28;20043;-63
2023/10/30 11:49:14;;;;;;;47.08;44.67;;;;;;;;;;5065722;28;20039;-63
2023/10/30 11:51:45;;;;;;;46.50;44.15;;;;;;;;;;5067529;28;20273;-65
2023/10/30 11:54:10;;;;;;;43.33;41.13;;;;;;;;;;5067439;28;20040;-65
2023/10/30 11:56:37;;;;;;;43.70;41.45;;;;;;;;;;5069045;28;20488;-65
2023/10/30 11:59:04;;;;;;;44.25;41.85;;;;;;;;;;5068007;28;20040;-62
2023/10/30 12:01:32;;;;;;;44.38;42.15;;;;;;;;;;5067916;28;20038;-65
2023/10/30 12:03:59;;;;;;;40.08;38.05;;;;;;;;;;5068294;28;20033;-63
2023/10/30 12:06:25;;;;;;;36.55;34.65;;;;;;;;;;5072203;28;20032;-61
2023/10/30 12:08:51;;;;;;;35.50;33.20;;;;;;;;;;5068808;28;20591;-66
2023/10/30 12:11:16;;;;;;;36.95;35.05;;;;;;;;;;5069351;28;20041;-63
2023/10/30 12:13:42;;;;;;;36.20;34.35;;;;;;;;;;5069150;28;20028;-63
2023/10/30 12:16:07;;;;;;;33.33;31.60;;;;;;;;;;5070638;28;20024;-66
2023/10/30 12:18:35;;;;;;;32.83;31.13;;;;;;;;;;5067497;28;20032;-67
2023/10/30 12:21:00;;;;;;;27.42;26.00;;;;;;;;;;5068081;28;20025;-67
2023/10/30 12:23:26;;;;;;;30.30;28.70;;;;;;;;;;5067451;28;20031;-63
2023/10/30 12:26:02;;;;;;;31.92;30.27;;;;;;;;;;5068795;28;20028;-63
2023/10/30 12:28:35;;;;;;;28.67;27.17;;;;;;;;;;5067049;28;20051;-63
2023/10/30 12:31:25;;;;;;;30.80;29.20;;;;;;;;;;5066864;28;20497;-66
2023/10/30 12:34:08;;;;;;;29.40;27.83;;;;;;;;;;5070118;28;20032;-63
2023/10/30 12:36:34;;;;;;;28.63;27.02;;;;;;;;;;5067070;28;20035;-64
2023/10/30 12:39:15;;;;;;;28.35;26.85;;;;;;;;;;5068508;28;20032;-66
2023/10/30 12:41:40;;;;;;;30.05;28.45;;;;;;;;;;5070234;28;20503;-66
2023/10/30 12:44:06;;;;;;;31.83;30.17;;;;;;;;;;5066442;28;20032;-66
2023/10/30 12:46:31;;;;;;;34.22;32.42;;;;;;;;;;5063453;28;20133;-67
2023/10/30 12:48:57;;;;;;;32.75;30.90;;;;;;;;;;5063687;28;20036;-66
2023/10/30 12:51:23;;;;;;;30.88;29.27;;;;;;;;;;5065867;28;20059;-66
2023/10/30 12:53:48;;;;;;;29.50;27.95;;;;;;;;;;5065624;28;20036;-65
2023/10/30 12:56:13;;;;;;;27.50;26.08;;;;;;;;;;5066117;28;20024;-62
2023/10/30 12:58:40;;;;;;;30.80;28.95;;;;;;;;;;5068360;28;20036;-63
2023/10/30 13:01:05;;;;;;;28.25;26.75;;;;;;;;;;5064254;28;20033;-65
2023/10/30 13:03:31;;;;;;;30.20;28.60;;;;;;;;;;5065036;28;20385;-63
2023/10/30 13:05:57;;;;;;;31.45;29.75;;;;;;;;;;5066987;28;20033;-67
2023/10/30 13:08:22;;;;;;;33.55;31.83;;;;;;;;;;5063905;28;20044;-66
2023/10/30 13:10:48;;;;;;;35.22;33.42;;;;;;;;;;5067016;28;20037;-66
2023/10/30 13:13:16;;;;;;;34.72;32.92;;;;;;;;;;5064309;28;20074;-66
2023/10/30 13:15:42;;;;;;;36.50;34.60;;;;;;;;;;5063718;28;20037;-65
2023/10/30 13:18:07;;;;;;;35.92;34.08;;;;;;;;;;5064094;28;20036;-66
2023/10/30 13:20:33;;;;;;;40.60;38.50;;;;;;;;;;5066830;28;20051;-66
2023/10/30 13:22:59;;;;;;;39.38;37.33;;;;;;;;;;5061355;28;20681;-66
2023/10/30 13:25:24;;;;;;;41.97;39.85;;;;;;;;;;5062926;28;20071;-64
2023/10/30 13:27:50;;;;;;;42.60;40.45;;;;;;;;;;5067706;28;20044;-68
2023/10/30 13:30:15;;;;;;;45.80;43.42;;;;;;;;;;5065643;28;20190;-67
2023/10/30 13:32:40;;;;;;;46.28;43.85;;;;;;;;;;5063748;28;20032;-66
2023/10/30 13:35:06;;;;;;;47.25;44.85;;;;;;;;;;5066909;28;20028;-66
2023/10/30 13:37:34;;;;;;;48.42;45.97;;;;;;;;;;5064905;28;20054;-66
2023/10/30 13:39:59;;;;;;;50.00;47.47;;;;;;;;;;5063823;28;20366;-66
2023/10/30 13:42:25;;;;;;;52.38;49.58;;;;;;;;;;5063995;28;20036;-64
2023/10/30 13:44:51;;;;;;;51.90;49.28;;;;;;;;;;5065476;28;20629;-64
2023/10/30 13:47:16;;;;;;;56.92;54.03;;;;;;;;;;5063698;28;20044;-64
2023/10/30 13:49:42;;;;;;;57.47;54.53;;;;;;;;;;5062926;28;20037;-64
2023/10/30 13:52:07;;;;;;;57.53;54.63;;;;;;;;;;5065081;28;20373;-66
2023/10/30 13:54:33;;;;;;;57.55;54.67;;;;;;;;;;5067231;28;20025;-63
2023/10/30 13:56:58;;;;;;;61.45;58.38;;;;;;;;;;5063749;28;20344;-66
2023/10/30 13:59:24;;;;;;;61.53;58.42;;;;;;;;;;5067361;28;20178;-66
2023/10/30 14:01:50;;;;;;;61.83;58.75;;;;;;;;;;5067375;28;20057;-64
2023/10/30 14:04:16;;;;;;;65.25;61.97;;;;;;;;;;5065431;28;20041;-66
2023/10/30 14:06:41;;;;;;;67.15;63.78;;;;;;;;;;5063761;28;20488;-66
2023/10/30 14:09:07;;;;;;;69.60;66.13;;;;;;;;;;5064658;28;20033;-66
2023/10/30 14:11:32;;;;;;;76.20;72.38;;;;;;;;;;5065735;28;20039;-66